Time;durP1;ratioP1;P1;durP2;ratioP2;P2;SDS_P1;SDS_P2;PMS_P1;PMS_P2;Temp;Humidity;BMP_temperature;BMP_pressure;BME280_temperature;BME280_humidity;BME280_pressure;Samples;Min_cycle;Max_cycle;Signal;HPM_P1;HPM_P2
2021/06/19 00:02:21;;;;;;;12.60;10.85;;;512.80;2380.80;;;;;;5054457;28;20516;-78
2021/06/19 00:04:47;;;;;;;14.98;12.95;;;512.70;2380.80;;;;;;5053466;28;20029;-77
2021/06/19 00:07:13;;;;;;;14.88;12.70;;;512.50;2380.80;;;;;;5054515;28;20403;-79
2021/06/19 00:09:39;;;;;;;17.05;11.52;;;512.50;2380.80;;;;;;5052651;28;20037;-78
2021/06/19 00:12:06;;;;;;;19.25;12.63;;;512.30;2380.80;;;;;;5052526;28;20111;-78
2021/06/19 00:14:32;;;;;;;20.45;14.32;;;512.40;2380.80;;;;;;5054884;28;20107;-79
2021/06/19 00:16:58;;;;;;;16.33;12.82;;;512.20;2380.80;;;;;;5054239;28;20060;-78
2021/06/19 00:19:24;;;;;;;18.02;12.77;;;512.20;2380.80;;;;;;5055261;28;20049;-77
2021/06/19 00:21:49;;;;;;;16.70;11.35;;;512.30;2380.80;;;;;;5054466;28;20027;-79
2021/06/19 00:24:20;;;;;;;15.43;12.70;;;512.50;2380.80;;;;;;5054953;28;20027;-86
2021/06/19 00:26:47;;;;;;;13.00;11.55;;;512.40;2380.80;;;;;;5055102;28;20088;-85
2021/06/19 00:29:14;;;;;;;14.40;12.48;;;512.40;2380.80;;;;;;5056178;28;20075;-86
2021/06/19 00:31:40;;;;;;;18.00;11.85;;;512.70;2380.80;;;;;;5057065;28;20044;-86
2021/06/19 00:34:06;;;;;;;15.40;12.32;;;512.70;2380.80;;;;;;5055263;28;20017;-84
2021/06/19 00:36:32;;;;;;;19.13;11.52;;;512.40;2380.80;;;;;;5055184;28;20071;-87
2021/06/19 00:38:58;;;;;;;14.00;11.25;;;512.50;2380.80;;;;;;5054012;28;20095;-83
2021/06/19 00:41:24;;;;;;;14.95;11.05;;;512.50;2380.80;;;;;;5055533;28;20115;-85
2021/06/19 00:43:50;;;;;;;17.88;11.82;;;512.60;2380.80;;;;;;5054560;28;20140;-84
2021/06/19 00:46:16;;;;;;;15.80;11.57;;;512.70;2380.80;;;;;;5057569;28;20024;-86
2021/06/19 00:48:42;;;;;;;13.27;11.05;;;512.70;2380.80;;;;;;5054989;28;20032;-85
2021/06/19 00:51:07;;;;;;;13.68;10.73;;;512.80;2380.80;;;;;;5055018;28;20025;-84
2021/06/19 00:53:34;;;;;;;14.00;10.48;;;512.90;2380.80;;;;;;5055186;28;20021;-85
2021/06/19 00:56:02;;;;;;;13.88;11.35;;;512.90;2380.80;;;;;;5056170;28;20083;-84
2021/06/19 00:58:28;;;;;;;16.23;11.43;;;512.80;2380.80;;;;;;5055324;28;20028;-85
2021/06/19 01:00:54;;;;;;;15.02;11.20;;;537.60;2406.40;;;;;;5055412;28;20507;-85
2021/06/19 01:03:20;;;;;;;15.40;11.40;;;512.70;2380.80;;;;;;5055023;28;20092;-83
2021/06/19 01:05:48;;;;;;;13.35;11.95;;;512.90;2380.80;;;;;;5054554;28;20115;-84
2021/06/19 01:08:13;;;;;;;13.57;10.73;;;512.40;2380.80;;;;;;5054550;28;20021;-87
2021/06/19 01:10:39;;;;;;;16.38;10.75;;;512.50;2380.80;;;;;;5054621;28;20032;-86
2021/06/19 01:13:06;;;;;;;11.68;10.43;;;512.50;2380.80;;;;;;5054370;28;20142;-84
2021/06/19 01:15:32;;;;;;;14.32;10.35;;;512.70;2380.80;;;;;;5055301;28;20012;-86
2021/06/19 01:17:58;;;;;;;16.60;12.68;;;512.70;2380.80;;;;;;5055366;28;20047;-85
2021/06/19 01:20:25;;;;;;;16.73;11.40;;;512.70;2380.80;;;;;;5054457;28;20025;-84
2021/06/19 01:22:54;;;;;;;12.43;10.68;;;512.80;2380.80;;;;;;5054421;28;20040;-85
2021/06/19 01:25:25;;;;;;;13.88;11.73;;;512.80;2380.80;;;;;;5054285;28;20061;-85
2021/06/19 01:27:53;;;;;;;17.33;11.38;;;512.70;2380.80;;;;;;5054052;28;20419;-83
2021/06/19 01:30:21;;;;;;;18.23;11.38;;;512.70;2380.80;;;;;;5054561;28;20079;-85
2021/06/19 01:32:47;;;;;;;17.77;13.30;;;512.70;2380.80;;;;;;5055794;28;20461;-84
2021/06/19 01:35:13;;;;;;;13.07;11.77;;;512.30;2380.80;;;;;;5053906;28;20047;-83
2021/06/19 01:37:45;;;;;;;14.63;12.48;;;512.40;2380.80;;;;;;5053967;28;20402;-84
2021/06/19 01:40:14;;;;;;;17.98;12.65;;;512.30;2380.80;;;;;;5053677;28;20020;-84
2021/06/19 01:42:41;;;;;;;14.10;12.45;;;512.20;2380.80;;;;;;5053383;28;20071;-84
2021/06/19 01:45:19;;;;;;;14.77;12.70;;;512.20;2380.80;;;;;;5053700;28;20029;-84
2021/06/19 01:47:45;;;;;;;13.00;11.27;;;512.10;2380.80;;;;;;5054690;28;20028;-84
2021/06/19 01:50:14;;;;;;;19.73;12.40;;;512.30;2380.80;;;;;;5053527;28;20025;-86
2021/06/19 01:52:41;;;;;;;15.98;12.02;;;512.30;2380.80;;;;;;5052908;28;20025;-84
2021/06/19 01:55:07;;;;;;;15.15;11.70;;;512.10;2380.80;;;;;;5054087;28;20380;-85
2021/06/19 01:57:37;;;;;;;13.63;11.18;;;512.10;2380.80;;;;;;5053455;28;20029;-85
2021/06/19 02:00:09;;;;;;;14.05;11.98;;;512.20;2380.80;;;;;;5053883;28;20021;-85
2021/06/19 02:02:36;;;;;;;;;;;512.30;2380.80;;;;;;5053444;28;20041;-77
2021/06/19 02:05:02;;;;;;;17.50;11.60;;;512.30;2380.80;;;;;;5053432;28;19907;-74
2021/06/19 02:07:28;;;;;;;20.10;13.80;;;512.30;2380.80;;;;;;5052617;28;20067;-78
2021/06/19 02:09:54;;;;;;;18.80;12.05;;;512.30;2380.80;;;;;;5053648;28;20060;-78
2021/06/19 02:12:20;;;;;;;16.10;14.43;;;512.30;2380.80;;;;;;5052672;28;20025;-78
2021/06/19 02:14:46;;;;;;;14.40;12.90;;;512.30;2380.80;;;;;;5052264;28;20017;-78
2021/06/19 02:17:12;;;;;;;14.05;12.55;;;512.30;2380.80;;;;;;5052288;28;20097;-78
2021/06/19 02:19:38;;;;;;;16.25;13.98;;;512.30;2380.80;;;;;;5053842;28;20509;-78
2021/06/19 02:22:04;;;;;;;16.30;14.45;;;512.30;2380.80;;;;;;5054508;28;20032;-79
2021/06/19 02:24:30;;;;;;;16.27;13.63;;;512.30;2380.80;;;;;;5052210;28;20020;-78
2021/06/19 02:27:16;;;;;;;17.30;15.52;;;512.30;2380.80;;;;;;5052473;28;20360;-77
2021/06/19 02:29:42;;;;;;;17.27;13.63;;;512.30;2380.80;;;;;;5052388;28;20036;-78
2021/06/19 02:32:10;;;;;;;17.50;12.88;;;512.20;2380.80;;;;;;5052237;28;20032;-79
2021/06/19 02:34:36;;;;;;;18.05;14.07;;;512.20;2380.80;;;;;;5052436;28;20025;-78
2021/06/19 02:37:03;;;;;;;15.70;12.63;;;512.00;2380.80;;;;;;5052479;28;20021;-79
2021/06/19 02:39:29;;;;;;;15.25;12.25;;;512.00;2380.80;;;;;;5052135;28;20025;-78
2021/06/19 02:41:55;;;;;;;15.10;13.27;;;487.30;2380.80;;;;;;5052303;28;20115;-79
2021/06/19 02:44:21;;;;;;;16.55;13.27;;;486.90;2380.80;;;;;;5051950;28;20021;-79
2021/06/19 02:46:47;;;;;;;15.32;13.75;;;487.20;2380.80;;;;;;5052188;28;20441;-78
2021/06/19 02:49:13;;;;;;;14.43;12.95;;;487.20;2380.80;;;;;;5052121;28;20399;-79
2021/06/19 02:51:39;;;;;;;16.88;12.93;;;487.20;2380.80;;;;;;5053282;28;20031;-78
2021/06/19 02:54:06;;;;;;;15.43;13.77;;;487.10;2380.80;;;;;;5053163;28;20083;-78
2021/06/19 02:56:32;;;;;;;16.33;13.40;;;487.10;2380.80;;;;;;5052652;28;20064;-79
2021/06/19 02:58:58;;;;;;;15.50;13.35;;;487.10;2380.80;;;;;;5051385;28;20025;-80
2021/06/19 03:01:24;;;;;;;18.98;13.98;;;487.20;2380.80;;;;;;5053783;28;20028;-79
2021/06/19 03:03:49;;;;;;;17.63;14.13;;;487.10;2380.80;;;;;;5055266;28;20381;-79
2021/06/19 03:06:16;;;;;;;15.45;13.27;;;487.10;2380.80;;;;;;5058722;28;20024;-79
2021/06/19 03:08:42;;;;;;;15.27;13.57;;;487.30;2380.80;;;;;;5077496;28;20020;-80
2021/06/19 03:11:08;;;;;;;15.30;13.40;;;487.10;2380.80;;;;;;5059186;28;20452;-76
2021/06/19 03:13:37;;;;;;;17.40;13.68;;;487.10;2380.80;;;;;;5058887;28;20025;-77
2021/06/19 03:16:03;;;;;;;20.00;13.65;;;487.10;2380.80;;;;;;5058904;28;20024;-78
2021/06/19 03:18:29;;;;;;;18.58;14.25;;;487.00;2380.80;;;;;;5058832;28;20021;-79
2021/06/19 03:20:56;;;;;;;18.88;15.82;;;;;;;;;;5076436;28;20020;-77
2021/06/19 03:23:21;;;;;;;20.33;16.70;;;486.70;2380.80;;;;;;5058818;28;20024;-79
2021/06/19 03:25:47;;;;;;;20.45;16.90;;;486.60;2380.80;;;;;;5058907;28;20460;-79
2021/06/19 03:28:16;;;;;;;23.50;16.42;;;486.70;2380.80;;;;;;5058743;28;20020;-78
2021/06/19 03:30:45;;;;;;;17.33;14.65;;;486.70;2380.80;;;;;;5058968;28;20027;-77
2021/06/19 03:33:13;;;;;;;22.48;16.15;;;486.90;2380.80;;;;;;5058515;28;20416;-77
2021/06/19 03:35:39;;;;;;;20.95;15.32;;;486.80;2380.80;;;;;;5058566;28;20044;-79
2021/06/19 03:38:06;;;;;;;18.52;13.88;;;486.80;2380.80;;;;;;5058823;28;20036;-79
2021/06/19 03:40:32;;;;;;;21.88;14.68;;;486.80;2380.80;;;;;;5058321;28;20028;-78
2021/06/19 03:42:58;;;;;;;22.95;16.55;;;486.90;2380.80;;;;;;5076546;28;20025;-77
2021/06/19 03:45:27;;;;;;;18.08;14.70;;;486.70;2380.80;;;;;;5058513;28;20020;-78
2021/06/19 03:47:54;;;;;;;22.10;16.30;;;486.80;2380.80;;;;;;5058906;28;20021;-77
2021/06/19 03:50:23;;;;;;;18.08;14.45;;;486.70;2380.80;;;;;;5058385;28;20344;-78
2021/06/19 03:52:48;;;;;;;20.60;15.52;;;486.80;2380.80;;;;;;5058383;28;20161;-78
2021/06/19 03:55:14;;;;;;;23.48;17.70;;;486.90;2380.80;;;;;;5058014;28;20052;-77
2021/06/19 03:57:41;;;;;;;19.40;15.40;;;486.90;2380.80;;;;;;5058311;28;20017;-78
2021/06/19 04:00:12;;;;;;;20.63;16.25;;;487.00;2380.80;;;;;;5058417;28;20048;-78
2021/06/19 04:02:38;;;;;;;21.98;15.65;;;487.00;2380.80;;;;;;5057816;28;20048;-77
2021/06/19 04:05:06;;;;;;;25.25;15.45;;;487.00;2380.80;;;;;;5058879;28;20028;-78
2021/06/19 04:07:32;;;;;;;19.83;13.77;;;487.00;2380.80;;;;;;5058170;28;20025;-78
2021/06/19 04:09:57;;;;;;;19.30;15.13;;;487.00;2380.80;;;;;;5057724;28;20474;-78
2021/06/19 04:12:23;;;;;;;19.58;14.73;;;487.10;2380.80;;;;;;5058105;28;20079;-78
2021/06/19 04:14:50;;;;;;;18.85;14.85;;;487.10;2380.80;;;;;;5058107;28;20360;-79
2021/06/19 04:17:17;;;;;;;20.40;15.07;;;512.50;2380.80;;;;;;5056817;28;20017;-77
2021/06/19 04:19:43;;;;;;;23.35;17.67;;;487.20;2380.80;;;;;;5057967;28;20028;-79
2021/06/19 04:22:10;;;;;;;21.02;16.92;;;487.20;2380.80;;;;;;5058694;28;20031;-79
2021/06/19 04:24:37;;;;;;;19.48;15.10;;;487.20;2380.80;;;;;;5075628;28;20027;-79
2021/06/19 04:27:04;;;;;;;23.98;17.42;;;487.30;2380.80;;;;;;5057767;28;20027;-77
2021/06/19 04:29:32;;;;;;;19.67;16.00;;;487.20;2380.80;;;;;;5057367;28;20467;-78
2021/06/19 04:31:59;;;;;;;20.58;16.98;;;512.10;2380.80;;;;;;5057616;28;20029;-79
2021/06/19 04:34:25;;;;;;;19.38;15.98;;;486.90;2380.80;;;;;;5057564;28;20016;-77
2021/06/19 04:36:51;;;;;;;23.40;16.40;;;487.10;2380.80;;;;;;5057270;28;20070;-78
2021/06/19 04:39:18;;;;;;;17.77;15.88;;;487.20;2380.80;;;;;;5058531;28;20182;-78
2021/06/19 04:41:51;;;;;;;22.52;15.68;;;487.10;2380.80;;;;;;5057626;28;20024;-78
2021/06/19 04:44:25;;;;;;;20.42;18.05;;;487.00;2380.80;;;;;;5075241;28;20475;-78
2021/06/19 04:46:52;;;;;;;19.17;16.38;;;487.00;2380.80;;;;;;5057502;28;20067;-78
2021/06/19 04:49:21;;;;;;;19.25;16.73;;;486.90;2380.80;;;;;;5057294;28;20110;-77
2021/06/19 04:51:47;;;;;;;19.27;16.83;;;487.00;2380.80;;;;;;5074930;28;20024;-77
2021/06/19 04:54:13;;;;;;;21.08;17.40;;;487.00;2380.80;;;;;;5056957;28;20024;-77
2021/06/19 04:56:40;;;;;;;20.73;18.58;;;486.90;2380.80;;;;;;5058071;28;20020;-77
2021/06/19 04:59:06;;;;;;;19.55;16.73;;;486.90;2380.80;;;;;;5057148;28;20021;-79
2021/06/19 05:01:32;;;;;;;17.88;15.80;;;487.10;2380.80;;;;;;5056683;28;20040;-78
2021/06/19 05:04:01;;;;;;;20.20;17.05;;;487.20;2380.80;;;;;;5056967;28;20020;-78
2021/06/19 05:06:27;;;;;;;17.20;15.38;;;512.00;2380.80;;;;;;5056739;28;20034;-78
2021/06/19 05:08:53;;;;;;;20.60;17.25;;;487.30;2380.80;;;;;;5056806;28;20035;-78
2021/06/19 05:11:19;;;;;;;17.42;15.65;;;512.10;2380.80;;;;;;5056215;28;20111;-78
2021/06/19 05:13:46;;;;;;;17.10;15.40;;;512.20;2380.80;;;;;;5056756;28;20082;-78
2021/06/19 05:16:13;;;;;;;18.15;14.93;;;512.00;2380.80;;;;;;5056899;28;20025;-79
2021/06/19 05:18:39;;;;;;;18.90;15.60;;;512.20;2380.80;;;;;;5057572;28;20032;-79
2021/06/19 05:21:05;;;;;;;18.73;15.05;;;512.30;2380.80;;;;;;5056818;28;20020;-78
2021/06/19 05:23:30;;;;;;;15.77;13.70;;;512.40;2380.80;;;;;;5057837;28;20094;-78
2021/06/19 05:25:56;;;;;;;19.05;15.10;;;512.50;2380.80;;;;;;5057604;28;20533;-78
2021/06/19 05:28:23;;;;;;;16.67;14.95;;;512.70;2380.80;;;;;;5057172;28;20028;-79
2021/06/19 05:30:50;;;;;;;16.35;14.75;;;512.50;2380.80;;;;;;5056227;28;20021;-79
2021/06/19 05:33:16;;;;;;;17.15;15.40;;;512.60;2380.80;;;;;;5058130;28;20027;-79
2021/06/19 05:35:42;;;;;;;18.75;16.55;;;512.90;2380.80;;;;;;5074073;28;20020;-78
2021/06/19 05:38:08;;;;;;;20.67;18.55;;;512.70;2380.80;;;;;;5056260;28;20364;-78
2021/06/19 05:40:34;;;;;;;18.75;16.80;;;512.80;2380.80;;;;;;5073887;28;20479;-78
2021/06/19 05:43:00;;;;;;;19.10;17.20;;;512.80;2380.80;;;;;;5074242;28;20029;-78
2021/06/19 05:45:26;;;;;;;17.30;15.48;;;512.90;2380.80;;;;;;5055641;28;20023;-78
2021/06/19 05:47:51;;;;;;;16.42;14.85;;;512.90;2380.80;;;;;;5055708;28;20047;-79
2021/06/19 05:50:17;;;;;;;18.42;16.40;;;537.60;2406.40;;;;;;5074168;28;20460;-79
2021/06/19 05:52:43;;;;;;;19.45;14.95;;;537.70;2406.40;;;;;;5073363;28;20029;-79
2021/06/19 05:55:10;;;;;;;19.90;16.42;;;537.70;2406.40;;;;;;5055437;28;20483;-79
2021/06/19 05:57:36;;;;;;;13.85;12.45;;;537.70;2406.40;;;;;;5054963;28;20063;-79
2021/06/19 06:00:07;;;;;;;17.00;14.60;;;538.00;2406.40;;;;;;5055492;28;20077;-78
2021/06/19 06:02:33;;;;;;;14.45;13.05;;;538.00;2406.40;;;;;;5054974;28;20048;-79
2021/06/19 06:05:02;;;;;;;15.18;13.07;;;538.00;2406.40;;;;;;5055330;28;20024;-80
2021/06/19 06:07:28;;;;;;;13.80;12.40;;;538.10;2406.40;;;;;;5038425;28;20029;-78
2021/06/19 06:09:53;;;;;;;15.85;13.23;;;538.10;2406.40;;;;;;5055005;28;20031;-79
2021/06/19 06:12:19;;;;;;;17.17;14.05;;;538.10;2406.40;;;;;;5055427;28;20471;-79
2021/06/19 06:14:45;;;;;;;18.13;14.95;;;538.00;2406.40;;;;;;5074022;28;20028;-79
2021/06/19 06:17:11;;;;;;;17.63;14.38;;;538.10;2406.40;;;;;;5056191;28;20024;-79
2021/06/19 06:19:36;;;;;;;20.45;16.00;;;538.30;2406.40;;;;;;5055529;28;20077;-78
2021/06/19 06:22:04;;;;;;;16.55;14.82;;;538.40;2406.40;;;;;;5055918;28;20023;-79
2021/06/19 06:24:30;;;;;;;16.58;13.52;;;538.30;2406.40;;;;;;5039466;28;20020;-79
2021/06/19 06:26:56;;;;;;;14.88;12.88;;;538.20;2406.40;;;;;;5073175;28;20021;-79
2021/06/19 06:29:21;;;;;;;14.80;13.27;;;538.10;2406.40;;;;;;5055331;28;20074;-79
2021/06/19 06:31:48;;;;;;;17.83;15.77;;;538.20;2406.40;;;;;;5055500;28;20033;-78
2021/06/19 06:34:15;;;;;;;17.85;14.88;;;538.40;2406.40;;;;;;5073294;28;20085;-79
2021/06/19 06:36:41;;;;;;;23.10;17.52;;;538.50;2406.40;;;;;;5073654;28;20070;-79
2021/06/19 06:39:06;;;;;;;21.90;15.52;;;563.20;2432.00;;;;;;5056481;28;20702;-80
2021/06/19 06:41:32;;;;;;;19.35;14.30;;;563.40;2432.00;;;;;;5061077;28;20027;-79
2021/06/19 06:43:58;;;;;;;19.08;14.00;;;563.40;2432.00;;;;;;5060657;28;20031;-79
2021/06/19 06:46:24;;;;;;;17.30;15.07;;;563.30;2432.00;;;;;;5059025;28;20372;-80
2021/06/19 06:48:50;;;;;;;18.75;14.20;;;563.50;2432.00;;;;;;5077585;28;20039;-80
2021/06/19 06:51:16;;;;;;;15.30;13.70;;;563.30;2432.00;;;;;;5059654;28;20182;-80
2021/06/19 06:53:41;;;;;;;16.35;14.50;;;563.50;2432.00;;;;;;5059343;28;20021;-79
2021/06/19 06:56:07;;;;;;;17.48;15.05;;;563.60;2432.00;;;;;;5077798;28;20013;-79
2021/06/19 06:58:33;;;;;;;21.10;15.35;;;563.60;2432.00;;;;;;5079294;28;20020;-79
2021/06/19 07:01:00;;;;;;;16.30;14.32;;;563.70;2432.00;;;;;;5076902;28;20051;-80
2021/06/19 07:03:26;;;;;;;18.85;13.65;;;563.70;2432.00;;;;;;5058958;28;20508;-80
2021/06/19 07:05:52;;;;;;;15.85;14.15;;;563.70;2432.00;;;;;;5059381;28;20025;-80
2021/06/19 07:08:18;;;;;;;14.02;12.52;;;563.80;2432.00;;;;;;5076672;28;20025;-79
2021/06/19 07:10:44;;;;;;;16.27;13.55;;;563.80;2432.00;;;;;;5059140;28;20482;-78
2021/06/19 07:13:10;;;;;;;13.82;12.07;;;564.00;2432.00;;;;;;5059931;28;20034;-77
2021/06/19 07:15:36;;;;;;;13.13;11.77;;;564.10;2432.00;;;;;;5058870;28;20021;-80
2021/06/19 07:18:02;;;;;;;13.65;12.20;;;564.10;2432.00;;;;;;5059177;28;20020;-79
2021/06/19 07:20:28;;;;;;;13.50;11.68;;;588.80;2432.00;;;;;;5059292;28;20036;-81
2021/06/19 07:22:54;;;;;;;13.65;12.20;;;588.90;2432.00;;;;;;5058766;28;20081;-81
2021/06/19 07:25:20;;;;;;;16.60;12.18;;;588.90;2432.00;;;;;;5059088;28;20016;-79
2021/06/19 07:27:53;;;;;;;13.48;11.82;;;589.00;2432.00;;;;;;5058877;28;20512;-79
2021/06/19 07:30:20;;;;;;;15.50;11.27;;;589.10;2432.00;;;;;;5058953;28;20025;-80
2021/06/19 07:32:46;;;;;;;15.38;12.07;;;589.10;2432.00;;;;;;5076789;28;20103;-77
2021/06/19 07:35:12;;;;;;;14.40;12.20;;;589.10;2432.00;;;;;;5058519;28;20111;-78
2021/06/19 07:37:38;;;;;;;25.17;13.80;;;589.10;2432.00;;;;;;5058799;28;20403;-78
2021/06/19 07:40:05;;;;;;;14.43;13.02;;;589.20;2432.00;;;;;;5058605;28;20025;-79
2021/06/19 07:42:36;;;;;;;18.98;12.15;;;589.10;2432.00;;;;;;5058387;28;20028;-78
2021/06/19 07:45:04;;;;;;;14.80;11.85;;;589.00;2432.00;;;;;;5058652;28;20021;-77
2021/06/19 07:47:29;;;;;;;13.15;11.63;;;588.90;2432.00;;;;;;5076696;28;20016;-77
2021/06/19 07:49:55;;;;;;;16.85;12.43;;;588.90;2432.00;;;;;;5057574;28;20400;-76
2021/06/19 07:52:21;;;;;;;14.13;11.30;;;588.90;2432.00;;;;;;5075441;28;20025;-75
2021/06/19 07:54:48;;;;;;;15.15;10.80;;;588.90;2432.00;;;;;;5055742;28;20021;-76
2021/06/19 07:57:14;;;;;;;18.85;11.38;;;564.10;2432.00;;;;;;5075032;28;20372;-79
2021/06/19 07:59:40;;;;;;;12.15;10.90;;;588.80;2432.00;;;;;;5053609;28;20024;-77
2021/06/19 08:02:06;;;;;;;12.50;10.85;;;564.10;2432.00;;;;;;5051925;28;20087;-77
2021/06/19 08:04:33;;;;;;;15.98;11.15;;;588.80;2432.00;;;;;;5055008;28;20023;-78
2021/06/19 08:06:59;;;;;;;18.27;11.20;;;588.80;2432.00;;;;;;5037393;28;20025;-77
2021/06/19 08:09:25;;;;;;;16.95;12.70;;;588.80;2432.00;;;;;;5054871;28;20090;-78
2021/06/19 08:11:51;;;;;;;14.90;11.30;;;588.80;2432.00;;;;;;5037034;28;20025;-79
2021/06/19 08:14:18;;;;;;;18.20;12.80;;;588.80;2432.00;;;;;;5037144;28;20104;-78
2021/06/19 08:16:49;;;;;;;14.43;12.10;;;564.10;2432.00;;;;;;5056858;28;20599;-77
2021/06/19 08:19:15;;;;;;;18.40;12.73;;;588.80;2432.00;;;;;;5057196;28;20108;-78
2021/06/19 08:21:41;;;;;;;14.60;12.23;;;588.80;2432.00;;;;;;5057064;28;20297;-77
2021/06/19 08:24:08;;;;;;;15.80;12.70;;;589.00;2432.00;;;;;;5056841;28;20075;-76
2021/06/19 08:26:37;;;;;;;17.50;12.30;;;589.30;2432.00;;;;;;5056885;28;20029;-77
2021/06/19 08:29:05;;;;;;;15.48;13.52;;;589.30;2432.00;;;;;;5056855;28;20024;-76
2021/06/19 08:31:38;;;;;;;19.20;13.82;;;589.40;2432.00;;;;;;5050458;28;20036;-76
2021/06/19 08:34:05;;;;;;;14.70;11.90;;;589.30;2432.00;;;;;;5045895;28;20016;-76
2021/06/19 08:36:31;;;;;;;16.90;12.70;;;589.40;2432.00;;;;;;5044754;28;20021;-76
2021/06/19 08:38:58;;;;;;;12.95;11.60;;;589.40;2432.00;;;;;;5045253;28;20025;-76
2021/06/19 08:41:25;;;;;;;14.27;11.73;;;589.30;2432.00;;;;;;5043039;28;20079;-77
2021/06/19 08:43:51;;;;;;;14.27;11.73;;;589.20;2432.00;;;;;;5036655;28;20028;-77
2021/06/19 08:46:22;;;;;;;15.00;12.98;;;589.20;2432.00;;;;;;5036124;28;20025;-77
2021/06/19 08:48:50;;;;;;;17.30;13.73;;;589.20;2432.00;;;;;;5042689;28;20039;-77
2021/06/19 08:51:16;;;;;;;17.48;12.80;;;589.20;2432.00;;;;;;5056071;28;20586;-75
2021/06/19 08:53:41;;;;;;;23.20;14.27;;;589.10;2432.00;;;;;;5056070;28;20119;-78
2021/06/19 08:56:07;;;;;;;16.95;14.90;;;589.10;2432.00;;;;;;5048073;28;20024;-77
2021/06/19 08:58:33;;;;;;;17.48;13.73;;;589.00;2432.00;;;;;;5037185;28;20368;-77
2021/06/19 09:00:59;;;;;;;21.65;14.55;;;589.30;2432.00;;;;;;5054674;28;20025;-75
2021/06/19 09:03:27;;;;;;;20.02;12.82;;;589.30;2432.00;;;;;;5053813;28;20464;-77
2021/06/19 09:06:14;;;;;;;17.48;13.05;;;589.30;2432.00;;;;;;5035859;28;20017;-78
2021/06/19 09:09:02;;;;;;;18.85;13.40;;;589.40;2432.00;;;;;;5026161;28;20029;-76
2021/06/19 09:11:29;;;;;;;15.73;13.68;;;589.30;2432.00;;;;;;5037098;28;20029;-76
2021/06/19 09:14:00;;;;;;;19.60;14.50;;;589.30;2432.00;;;;;;5054778;28;20479;-75
2021/06/19 09:16:26;;;;;;;17.50;14.00;;;589.30;2432.00;;;;;;5054638;28;20052;-77
2021/06/19 09:18:51;;;;;;;20.75;15.07;;;589.40;2432.00;;;;;;5054651;28;20025;-77
2021/06/19 09:21:25;;;;;;;18.80;12.93;;;589.30;2432.00;;;;;;5054323;28;20021;-75
2021/06/19 09:23:51;;;;;;;15.63;12.13;;;589.20;2432.00;;;;;;5054304;28;20052;-76
2021/06/19 09:26:21;;;;;;;14.07;12.50;;;589.00;2432.00;;;;;;5054326;28;20408;-75
2021/06/19 09:29:15;;;;;;;16.35;12.63;;;589.00;2432.00;;;;;;5036377;28;20104;-76
2021/06/19 09:31:45;;;;;;;15.60;12.27;;;589.20;2432.00;;;;;;5037887;28;20053;-75
2021/06/19 09:34:13;;;;;;;18.42;14.60;;;589.30;2432.00;;;;;;5055661;28;20452;-76
2021/06/19 09:36:43;;;;;;;19.90;16.00;;;589.20;2432.00;;;;;;5037430;28;20021;-76
2021/06/19 09:39:11;;;;;;;19.50;13.65;;;589.30;2432.00;;;;;;5056482;28;20028;-75
2021/06/19 09:41:45;;;;;;;12.88;10.57;;;589.30;2432.00;;;;;;5036451;28;20024;-77
2021/06/19 09:44:12;;;;;;;16.23;12.82;;;589.10;2432.00;;;;;;5036421;28;20025;-75
2021/06/19 09:46:38;;;;;;;15.38;13.55;;;589.00;2432.00;;;;;;5036560;28;20025;-78
2021/06/19 09:49:16;;;;;;;17.05;13.52;;;589.00;2432.00;;;;;;5053823;28;20025;-75
2021/06/19 09:51:50;;;;;;;15.73;12.75;;;589.00;2432.00;;;;;;5040641;28;20052;-77
2021/06/19 09:54:20;;;;;;;19.30;13.50;;;589.00;2432.00;;;;;;5056724;28;20031;-78
2021/06/19 09:57:00;;;;;;;22.52;16.15;;;589.00;2432.00;;;;;;5074046;28;20023;-77
2021/06/19 09:59:35;;;;;;;23.42;15.15;;;589.00;2432.00;;;;;;5074053;28;20025;-75
2021/06/19 10:02:03;;;;;;;19.90;14.60;;;588.90;2432.00;;;;;;5055777;28;20042;-76
2021/06/19 10:04:30;;;;;;;20.58;16.25;;;588.90;2432.00;;;;;;5073696;28;20070;-77
2021/06/19 10:06:58;;;;;;;24.27;17.20;;;588.90;2432.00;;;;;;5073707;28;20069;-77
2021/06/19 10:09:24;;;;;;;19.58;14.52;;;588.90;2432.00;;;;;;5073598;28;20074;-75
2021/06/19 10:11:52;;;;;;;15.05;13.48;;;588.80;2432.00;;;;;;5056005;28;20086;-77
2021/06/19 10:14:21;;;;;;;16.52;13.25;;;588.80;2432.00;;;;;;5073170;28;20467;-76
2021/06/19 10:16:58;;;;;;;15.98;13.13;;;564.10;2432.00;;;;;;5055498;28;20021;-77
2021/06/19 10:19:25;;;;;;;21.17;15.82;;;588.80;2432.00;;;;;;5074032;28;20032;-74
2021/06/19 10:21:56;;;;;;;16.05;14.05;;;588.90;2432.00;;;;;;5055819;28;20079;-75
2021/06/19 10:24:24;;;;;;;14.43;12.93;;;588.90;2432.00;;;;;;5073358;28;20020;-76
2021/06/19 10:26:52;;;;;;;16.73;13.65;;;588.80;2432.00;;;;;;5055647;28;20020;-76
2021/06/19 10:29:20;;;;;;;12.45;11.13;;;589.00;2432.00;;;;;;5073897;28;20214;-77
2021/06/19 10:31:50;;;;;;;16.08;13.00;;;589.00;2432.00;;;;;;5055454;28;20047;-78
2021/06/19 10:34:22;;;;;;;15.80;13.07;;;589.10;2432.00;;;;;;5073753;28;20025;-76
2021/06/19 10:36:49;;;;;;;15.23;13.63;;;589.20;2432.00;;;;;;5055256;28;20157;-78
2021/06/19 10:39:30;;;;;;;14.98;12.60;;;589.60;2432.00;;;;;;5073510;28;20086;-77
2021/06/19 10:41:57;;;;;;;12.75;11.45;;;614.40;2432.00;;;;;;5073694;28;20099;-78
2021/06/19 10:44:48;;;;;;;15.93;11.63;;;614.90;2432.00;;;;;;5055214;28;20035;-76
2021/06/19 10:47:14;;;;;;;15.02;12.05;;;615.20;2432.00;;;;;;5073221;28;20012;-77
2021/06/19 10:49:42;;;;;;;21.17;16.17;;;640.20;2432.00;;;;;;5070053;28;20038;-76
2021/06/19 10:52:28;;;;;;;17.13;12.13;;;640.60;2432.00;;;;;;5070190;28;20039;-75
2021/06/19 10:55:10;;;;;;;14.82;13.25;;;640.50;2432.00;;;;;;5055484;28;20102;-75
2021/06/19 10:57:51;;;;;;;13.43;11.32;;;640.70;2432.00;;;;;;5052147;28;20077;-76
2021/06/19 11:00:27;;;;;;;17.45;13.27;;;665.80;2432.00;;;;;;5052558;28;20392;-76
2021/06/19 11:02:56;;;;;;;12.95;8.85;;;665.90;2432.00;;;;;;5065507;28;20049;-77
2021/06/19 11:05:43;;;;;;;13.25;11.40;;;;;;;;;;5072313;28;20364;-75
2021/06/19 11:08:13;;;;;;;10.75;9.50;;;691.50;2432.00;;;;;;5072505;28;20448;-76
2021/06/19 11:10:48;;;;;;;11.90;7.45;;;691.80;2432.00;;;;;;5063155;28;20451;-78
2021/06/19 11:13:29;;;;;;;11.35;6.35;;;716.90;2432.00;;;;;;5037455;28;20029;-77
2021/06/19 11:16:32;;;;;;;7.60;6.35;;;691.90;2432.00;;;;;;5054437;28;20028;-76
2021/06/19 11:18:57;;;;;;;11.10;7.72;;;691.90;2432.00;;;;;;5022062;28;20032;-76
2021/06/19 11:21:30;;;;;;;7.97;6.07;;;717.20;2432.00;;;;;;5063249;28;20124;-76
2021/06/19 11:24:02;;;;;;;8.05;5.00;;;717.10;2432.00;;;;;;5054579;28;20406;-76
2021/06/19 11:26:49;;;;;;;;;;;692.10;2432.00;;;;;;5057941;28;20031;-76
2021/06/19 11:29:34;;;;;;;8.50;7.13;;;692.10;2432.00;;;;;;5058153;28;19935;-75
2021/06/19 11:32:35;;;;;;;9.70;6.20;;;691.70;2432.00;;;;;;5058124;28;20025;-75
2021/06/19 11:35:21;;;;;;;10.60;6.97;;;691.60;2432.00;;;;;;5076074;28;20024;-75
2021/06/19 11:37:58;;;;;;;11.88;7.97;;;691.30;2432.00;;;;;;5058735;28;20360;-74
2021/06/19 11:40:33;;;;;;;14.40;8.85;;;691.20;2432.00;;;;;;5058120;28;20025;-75
2021/06/19 11:43:00;;;;;;;9.20;6.57;;;666.50;2432.00;;;;;;5057891;28;20051;-75
2021/06/19 11:45:26;;;;;;;7.72;5.97;;;666.30;2432.00;;;;;;5076414;28;20025;-74
2021/06/19 11:48:06;;;;;;;11.32;8.35;;;666.20;2432.00;;;;;;5058149;28;20024;-74
2021/06/19 11:50:33;;;;;;;11.18;6.80;;;666.00;2432.00;;;;;;5058496;28;20024;-73
2021/06/19 11:53:26;;;;;;;8.75;6.63;;;665.90;2432.00;;;;;;5058362;28;20409;-74
2021/06/19 11:55:51;;;;;;;;;;;665.70;2432.00;;;;;;5076694;28;20028;-75
2021/06/19 11:58:17;;;;;;;10.23;6.50;;;640.90;2432.00;;;;;;5039118;28;20308;-75
2021/06/19 12:00:56;;;;;;;12.27;6.80;;;640.90;2432.00;;;;;;5056396;28;20033;-74
2021/06/19 12:03:26;;;;;;;8.38;6.75;;;640.90;2432.00;;;;;;5056338;28;20041;-74
2021/06/19 12:05:51;;;;;;;8.00;5.30;;;640.70;2432.00;;;;;;5056072;28;20021;-76
2021/06/19 12:08:27;;;;;;;6.60;5.20;;;640.50;2432.00;;;;;;5055694;28;20350;-76